createdAt,value
2018-06-24T00:01:24.339Z,5.33
2018-06-24T00:03:52.427Z,4.95
2018-06-24T00:06:20.724Z,6.00
2018-06-24T00:08:48.770Z,4.97
2018-06-24T00:11:16.951Z,5.55
2018-06-24T00:13:45.350Z,5.60
2018-06-24T00:16:13.498Z,5.47
2018-06-24T00:18:41.596Z,5.40
2018-06-24T00:21:09.751Z,5.20
2018-06-24T00:23:37.929Z,5.20
2018-06-24T00:26:06.132Z,5.00
2018-06-24T00:28:34.154Z,5.20
2018-06-24T00:31:02.171Z,5.65
2018-06-24T00:33:30.295Z,5.33
2018-06-24T00:35:58.194Z,5.15
2018-06-24T00:38:26.264Z,5.50
2018-06-24T00:40:54.315Z,5.30
2018-06-24T00:43:22.515Z,5.50
2018-06-24T00:45:50.619Z,5.33
2018-06-24T00:48:18.640Z,5.42
2018-06-24T00:50:46.740Z,5.42
2018-06-24T00:53:14.797Z,5.62
2018-06-24T00:55:43.091Z,6.05
2018-06-24T00:58:11.188Z,5.90
2018-06-24T01:00:39.310Z,6.42
2018-06-24T01:03:07.407Z,6.47
2018-06-24T01:05:35.481Z,6.20
2018-06-24T01:08:03.531Z,6.45
2018-06-24T01:10:31.728Z,6.90
2018-06-24T01:12:59.995Z,7.33
2018-06-24T01:15:27.983Z,6.67
2018-06-24T01:17:56.156Z,7.28
2018-06-24T01:20:24.324Z,7.10
2018-06-24T01:22:52.415Z,7.20
2018-06-24T01:25:20.474Z,6.50
2018-06-24T01:27:48.550Z,5.92
2018-06-24T01:30:16.621Z,6.87
2018-06-24T01:32:44.708Z,6.80
2018-06-24T01:35:12.755Z,6.58
2018-06-24T01:37:40.846Z,6.97
2018-06-24T01:40:09.040Z,6.80
2018-06-24T01:42:37.381Z,6.70
2018-06-24T01:45:05.563Z,6.80
2018-06-24T01:47:33.698Z,7.17
2018-06-24T01:50:01.729Z,7.90
2018-06-24T01:52:29.698Z,7.20
2018-06-24T01:54:57.843Z,7.10
2018-06-24T01:57:25.959Z,7.10
2018-06-24T01:59:54.109Z,7.30
2018-06-24T02:02:22.282Z,6.83
2018-06-24T02:04:50.380Z,6.95
2018-06-24T02:07:18.439Z,7.00
2018-06-24T02:09:46.691Z,7.40
2018-06-24T02:12:14.594Z,7.20
2018-06-24T02:14:42.756Z,7.60
2018-06-24T02:17:10.830Z,8.20
2018-06-24T02:19:39.024Z,7.93
2018-06-24T02:22:07.102Z,8.10
2018-06-24T02:24:35.130Z,8.00
2018-06-24T02:27:03.240Z,8.55
2018-06-24T02:29:31.271Z,8.40
2018-06-24T02:31:59.076Z,8.15
2018-06-24T02:34:27.225Z,8.70
2018-06-24T02:36:55.312Z,8.30
2018-06-24T02:39:23.780Z,9.25
2018-06-24T02:41:51.931Z,8.90
2018-06-24T02:44:20.017Z,8.48
2018-06-24T02:46:47.923Z,8.60
2018-06-24T02:49:16.588Z,8.80
2018-06-24T02:51:44.779Z,8.43
2018-06-24T02:54:13.065Z,8.23
2018-06-24T02:56:41.209Z,8.00
2018-06-24T02:59:09.320Z,7.55
2018-06-24T03:01:37.395Z,7.40
2018-06-24T03:04:05.571Z,8.30
2018-06-24T03:06:33.614Z,7.70
2018-06-24T03:09:01.673Z,7.30
2018-06-24T03:11:29.789Z,7.67
2018-06-24T03:13:58.072Z,7.60
2018-06-24T03:16:26.218Z,7.75
2018-06-24T03:18:54.528Z,7.40
2018-06-24T03:21:22.586Z,7.60
2018-06-24T03:23:50.675Z,8.20
2018-06-24T03:26:18.922Z,7.60
2018-06-24T03:28:47.032Z,7.92
2018-06-24T03:31:15.088Z,7.90
2018-06-24T03:33:43.157Z,7.67
2018-06-24T03:36:11.529Z,7.35
2018-06-24T03:38:39.478Z,7.15
2018-06-24T03:41:07.587Z,7.60
2018-06-24T03:43:35.761Z,6.72
2018-06-24T03:46:03.803Z,6.92
2018-06-24T03:48:32.108Z,7.23
2018-06-24T03:51:00.277Z,7.10
2018-06-24T03:53:28.591Z,7.33
2018-06-24T03:55:56.684Z,7.20
2018-06-24T03:58:24.804Z,6.80
2018-06-24T04:00:52.874Z,7.50
2018-06-24T04:03:20.925Z,7.92
2018-06-24T04:05:49.023Z,7.20
2018-06-24T04:08:17.070Z,7.30
2018-06-24T04:10:45.284Z,7.90
2018-06-24T04:13:13.443Z,8.03
2018-06-24T04:15:41.513Z,7.72
2018-06-24T04:18:09.687Z,8.30
2018-06-24T04:20:37.744Z,7.85
2018-06-24T04:23:05.733Z,8.00
2018-06-24T04:25:33.768Z,8.08
2018-06-24T04:28:02.092Z,7.40
2018-06-24T04:30:30.232Z,8.00
2018-06-24T04:32:58.129Z,7.30
2018-06-24T04:35:26.183Z,7.92
2018-06-24T04:37:54.289Z,8.20
2018-06-24T04:40:22.340Z,7.80
2018-06-24T04:42:50.452Z,6.83
2018-06-24T04:45:18.474Z,7.70
2018-06-24T04:47:46.567Z,7.57
2018-06-24T04:50:14.647Z,7.40
2018-06-24T04:52:42.699Z,7.30
2018-06-24T04:55:10.794Z,6.50
2018-06-24T04:57:38.951Z,6.90
2018-06-24T05:00:07.183Z,6.30
2018-06-24T05:02:35.213Z,6.40
2018-06-24T05:05:03.503Z,6.72
2018-06-24T05:07:32.012Z,6.47
2018-06-24T05:10:00.243Z,6.50
2018-06-24T05:12:29.719Z,6.60
2018-06-24T05:14:57.824Z,6.53
2018-06-24T05:17:26.018Z,6.40
2018-06-24T05:19:54.188Z,6.95
2018-06-24T05:22:22.284Z,6.63
2018-06-24T05:24:50.368Z,6.87
2018-06-24T05:27:18.379Z,7.30
2018-06-24T05:29:46.590Z,6.70
2018-06-24T05:32:14.657Z,6.70
2018-06-24T05:34:42.756Z,6.17
2018-06-24T05:37:10.912Z,7.25
2018-06-24T05:39:38.947Z,6.90
2018-06-24T05:42:06.943Z,6.70
2018-06-24T05:44:34.995Z,7.37
2018-06-24T05:47:03.200Z,7.27
2018-06-24T05:49:31.444Z,7.12
2018-06-24T05:51:59.341Z,7.03
2018-06-24T05:54:27.529Z,7.65
2018-06-24T05:56:55.672Z,7.90
2018-06-24T05:59:23.867Z,8.48
2018-06-24T06:01:52.103Z,7.45
2018-06-24T06:04:20.239Z,7.80
2018-06-24T06:06:48.313Z,7.80
2018-06-24T06:09:16.588Z,7.37
2018-06-24T06:11:44.663Z,7.50
2018-06-24T06:14:12.752Z,8.28
2018-06-24T06:16:41.011Z,7.85
2018-06-24T06:19:09.064Z,7.95
2018-06-24T06:21:37.182Z,7.80
2018-06-24T06:24:05.331Z,7.50
2018-06-24T06:26:33.471Z,7.12
2018-06-24T06:29:01.731Z,7.80
2018-06-24T06:31:29.510Z,8.10
2018-06-24T06:33:57.607Z,7.80
2018-06-24T06:36:25.884Z,8.10
2018-06-24T06:38:53.966Z,9.00
2018-06-24T06:41:22.008Z,8.20
2018-06-24T06:43:50.112Z,8.35
2018-06-24T06:46:18.163Z,7.67
2018-06-24T06:48:46.250Z,6.83
2018-06-24T06:51:14.328Z,8.35
2018-06-24T06:53:42.371Z,7.80
2018-06-24T06:56:10.285Z,7.65
2018-06-24T06:58:38.719Z,7.60
2018-06-24T07:01:06.595Z,8.50
2018-06-24T07:03:34.699Z,8.28
2018-06-24T07:06:02.941Z,7.70
2018-06-24T07:08:30.735Z,8.40
2018-06-24T07:10:58.899Z,7.62
2018-06-24T07:13:28.138Z,7.97
2018-06-24T07:15:56.287Z,6.97
2018-06-24T07:18:24.458Z,7.40
2018-06-24T07:20:52.907Z,9.45
2018-06-24T07:23:20.790Z,9.10
2018-06-24T07:25:49.013Z,9.38
2018-06-24T07:28:17.227Z,8.93
2018-06-24T07:30:45.650Z,8.90
2018-06-24T07:33:14.464Z,8.70
2018-06-24T07:35:42.587Z,8.63
2018-06-24T07:38:10.748Z,8.88
2018-06-24T07:40:38.960Z,8.75
2018-06-24T07:43:07.012Z,8.40
2018-06-24T07:45:34.803Z,8.23
2018-06-24T07:48:02.961Z,8.45
2018-06-24T07:50:31.073Z,9.20
2018-06-24T07:52:59.540Z,8.80
2018-06-24T07:55:27.817Z,8.53
2018-06-24T07:57:55.911Z,8.30
2018-06-24T08:00:23.934Z,8.10
2018-06-24T08:02:52.027Z,7.90
2018-06-24T08:05:20.167Z,8.50
2018-06-24T08:07:48.505Z,8.40
2018-06-24T08:10:16.731Z,8.00
2018-06-24T08:12:44.713Z,7.67
2018-06-24T08:15:12.594Z,7.25
2018-06-24T08:17:40.765Z,7.60
2018-06-24T08:20:08.989Z,7.67
2018-06-24T08:22:37.040Z,7.37
2018-06-24T08:25:05.371Z,6.97
2018-06-24T08:27:33.488Z,7.20
2018-06-24T08:30:01.760Z,7.87
2018-06-24T08:32:29.819Z,7.05
2018-06-24T08:37:37.860Z,7.50
2018-06-24T08:40:05.944Z,7.50
2018-06-24T08:42:33.975Z,8.23
2018-06-24T08:45:04.269Z,7.90
2018-06-24T08:47:32.508Z,7.47
2018-06-24T08:50:02.276Z,7.37
2018-06-24T08:52:31.919Z,7.47
2018-06-24T08:55:01.709Z,7.87
2018-06-24T08:57:29.836Z,7.62
2018-06-24T08:59:57.893Z,7.10
2018-06-24T09:02:27.289Z,7.45
2018-06-24T09:04:55.387Z,6.70
2018-06-24T09:07:23.720Z,6.77
2018-06-24T09:09:52.090Z,6.53
2018-06-24T09:12:21.350Z,6.77
2018-06-24T09:14:53.251Z,7.00
2018-06-24T09:17:21.596Z,5.80
2018-06-24T09:19:49.711Z,6.30
2018-06-24T09:22:17.722Z,6.62
2018-06-24T09:24:45.815Z,6.00
2018-06-24T09:27:13.942Z,5.60
2018-06-24T09:29:42.620Z,5.72
2018-06-24T09:32:11.913Z,5.20
2018-06-24T09:34:40.026Z,6.12
2018-06-24T09:37:08.116Z,6.12
2018-06-24T09:39:36.188Z,6.28
2018-06-24T09:42:04.421Z,7.12
2018-06-24T09:44:32.314Z,6.00
2018-06-24T09:47:00.382Z,5.90
2018-06-24T09:49:28.462Z,6.08
2018-06-24T09:51:56.535Z,5.75
2018-06-24T09:54:24.614Z,5.87
2018-06-24T09:56:52.668Z,5.90
2018-06-24T09:59:20.877Z,6.25
2018-06-24T10:01:49.113Z,6.50
2018-06-24T10:04:17.121Z,5.83
2018-06-24T10:06:45.177Z,5.50
2018-06-24T10:09:13.477Z,5.97
2018-06-24T10:11:41.736Z,5.53
2018-06-24T10:14:09.991Z,5.40
2018-06-24T10:16:37.880Z,5.53
2018-06-24T10:19:06.040Z,6.15
2018-06-24T10:21:34.145Z,5.97
2018-06-24T10:24:02.187Z,6.30
2018-06-24T10:26:30.429Z,5.40
2018-06-24T10:28:58.528Z,5.97
2018-06-24T10:31:26.351Z,6.67
2018-06-24T10:33:54.476Z,6.12
2018-06-24T10:36:22.786Z,5.12
2018-06-24T10:38:50.878Z,5.40
2018-06-24T10:41:18.916Z,5.87
2018-06-24T10:43:47.051Z,4.87
2018-06-24T10:46:15.564Z,5.50
2018-06-24T10:48:43.788Z,4.60
2018-06-24T10:51:11.840Z,4.70
2018-06-24T10:53:40.097Z,5.40
2018-06-24T10:56:08.182Z,5.20
2018-06-24T10:58:36.332Z,5.60
2018-06-24T11:01:04.225Z,5.23
2018-06-24T11:03:32.411Z,4.57
2018-06-24T11:06:00.593Z,5.08
2018-06-24T11:08:28.686Z,5.00
2018-06-24T11:10:56.700Z,5.00
2018-06-24T11:13:24.903Z,5.45
2018-06-24T11:15:53.269Z,5.20
2018-06-24T11:18:21.456Z,6.25
2018-06-24T11:20:49.600Z,5.00
2018-06-24T11:23:17.596Z,5.40
2018-06-24T11:25:45.707Z,4.93
2018-06-24T11:28:13.852Z,5.00
2018-06-24T11:30:42.056Z,4.70
2018-06-24T11:33:10.076Z,4.95
2018-06-24T11:35:38.231Z,5.35
2018-06-24T11:38:06.555Z,4.70
2018-06-24T11:40:34.623Z,5.03
2018-06-24T11:43:02.673Z,5.20
2018-06-24T11:45:30.475Z,4.60
2018-06-24T11:47:58.615Z,3.75
2018-06-24T11:50:26.580Z,4.30
2018-06-24T11:52:54.370Z,4.30
2018-06-24T11:55:22.554Z,4.28
2018-06-24T11:57:50.655Z,3.80
2018-06-24T12:00:19.744Z,3.17
2018-06-24T12:02:48.363Z,3.50
2018-06-24T12:05:16.282Z,3.40
2018-06-24T12:07:44.352Z,3.52
2018-06-24T12:10:12.433Z,4.33
2018-06-24T12:12:40.568Z,3.83
2018-06-24T12:15:08.480Z,3.92
2018-06-24T12:17:36.527Z,3.45
2018-06-24T12:20:04.851Z,3.25
2018-06-24T12:22:32.915Z,3.20
2018-06-24T12:25:00.958Z,3.50
2018-06-24T12:27:30.519Z,3.40
2018-06-24T12:29:58.735Z,2.80
2018-06-24T12:32:26.726Z,3.00
2018-06-24T12:34:55.428Z,2.80
2018-06-24T12:37:23.494Z,2.87
2018-06-24T12:39:51.497Z,2.90
2018-06-24T12:42:19.722Z,2.80
2018-06-24T12:44:48.024Z,2.98
2018-06-24T12:47:16.096Z,2.50
2018-06-24T12:49:44.157Z,2.63
2018-06-24T12:52:12.273Z,3.17
2018-06-24T12:54:40.158Z,2.83
2018-06-24T12:57:08.649Z,2.70
2018-06-24T12:59:37.067Z,2.70
2018-06-24T13:02:05.013Z,2.70
2018-06-24T13:04:42.375Z,2.60
2018-06-24T13:07:16.932Z,2.47
2018-06-24T13:09:46.487Z,2.40
2018-06-24T13:12:19.240Z,2.57
2018-06-24T13:14:49.629Z,2.50
2018-06-24T13:17:24.352Z,2.58
2018-06-24T13:19:57.120Z,2.40
2018-06-24T13:22:25.691Z,2.30
2018-06-24T13:25:02.702Z,2.20
2018-06-24T13:27:34.482Z,2.90
2018-06-24T13:30:03.396Z,2.30
2018-06-24T13:32:33.626Z,2.20
2018-06-24T13:35:02.542Z,2.10
2018-06-24T13:37:32.565Z,2.25
2018-06-24T13:40:03.682Z,2.60
2018-06-24T13:42:38.479Z,2.70
2018-06-24T13:45:08.238Z,2.80
2018-06-24T13:47:39.225Z,2.67
2018-06-24T13:50:07.138Z,3.20
2018-06-24T13:52:43.492Z,3.10
2018-06-24T13:55:15.002Z,2.58
2018-06-24T13:57:45.505Z,2.60
2018-06-24T14:00:13.575Z,2.30
2018-06-24T14:02:42.662Z,2.40
2018-06-24T14:05:22.284Z,2.50
2018-06-24T14:07:55.513Z,2.70
2018-06-24T14:10:28.048Z,2.30
2018-06-24T14:12:57.440Z,2.60
2018-06-24T14:15:34.959Z,2.60
2018-06-24T14:18:04.640Z,2.70
2018-06-24T14:20:33.654Z,2.50
2018-06-24T14:23:01.727Z,2.75
2018-06-24T14:25:31.873Z,2.67
2018-06-24T14:28:00.030Z,2.70
2018-06-24T14:30:30.339Z,2.98
2018-06-24T14:32:59.227Z,2.98
2018-06-24T14:35:28.833Z,2.80
2018-06-24T14:37:57.498Z,2.70
2018-06-24T14:40:28.376Z,2.50
2018-06-24T14:43:06.720Z,2.77
2018-06-24T14:45:48.326Z,3.08
2018-06-24T14:48:17.198Z,2.60
2018-06-24T14:50:56.524Z,2.70
2018-06-24T14:53:25.325Z,3.10
2018-06-24T14:55:54.791Z,2.90
2018-06-24T14:58:23.498Z,2.30
2018-06-24T15:00:53.781Z,2.80
2018-06-24T15:03:23.540Z,2.87
2018-06-24T15:05:53.475Z,2.65
2018-06-24T15:08:24.060Z,2.98
2018-06-24T15:10:52.177Z,2.80
2018-06-24T15:13:20.340Z,2.80
2018-06-24T15:15:48.436Z,2.60
2018-06-24T15:18:16.493Z,3.10
2018-06-24T15:20:44.567Z,2.60
2018-06-24T15:23:12.842Z,2.70
2018-06-24T15:25:41.232Z,2.60
2018-06-24T15:28:09.363Z,2.70
2018-06-24T15:30:37.480Z,2.55
2018-06-24T15:33:05.839Z,2.40
2018-06-24T15:35:33.740Z,2.80
2018-06-24T15:38:01.892Z,3.00
2018-06-24T15:40:30.093Z,2.90
2018-06-24T15:42:58.131Z,2.87
2018-06-24T15:45:26.677Z,2.72
2018-06-24T15:47:54.801Z,3.05
2018-06-24T15:50:22.993Z,3.00
2018-06-24T15:52:51.049Z,2.90
2018-06-24T15:55:19.253Z,2.55
2018-06-24T15:57:47.388Z,2.80
2018-06-24T16:00:15.177Z,2.58
2018-06-24T16:02:43.231Z,2.70
2018-06-24T16:05:11.505Z,2.50
2018-06-24T16:07:39.392Z,2.50
2018-06-24T16:10:07.636Z,2.45
2018-06-24T16:12:35.655Z,2.47
2018-06-24T16:15:03.799Z,2.47
2018-06-24T16:17:31.578Z,2.40
2018-06-24T16:19:59.648Z,2.52
2018-06-24T16:22:27.867Z,2.70
2018-06-24T16:24:55.911Z,2.92
2018-06-24T16:27:23.991Z,2.70
2018-06-24T16:29:52.065Z,2.50
2018-06-24T16:32:20.110Z,2.60
2018-06-24T16:34:48.119Z,2.80
2018-06-24T16:37:16.487Z,2.40
2018-06-24T16:39:44.582Z,3.20
2018-06-24T16:42:12.612Z,2.50
2018-06-24T16:44:40.816Z,2.60
2018-06-24T16:47:08.852Z,2.72
2018-06-24T16:49:36.734Z,2.60
2018-06-24T16:52:04.780Z,2.55
2018-06-24T16:54:32.907Z,2.50
2018-06-24T16:57:01.055Z,2.40
2018-06-24T16:59:29.408Z,2.72
2018-06-24T17:01:57.704Z,2.50
2018-06-24T17:04:25.603Z,3.10
2018-06-24T17:06:53.645Z,3.30
2018-06-24T17:09:21.542Z,2.60
2018-06-24T17:11:49.524Z,2.30
2018-06-24T17:14:17.683Z,2.15
2018-06-24T17:16:45.764Z,2.20
2018-06-24T17:19:13.902Z,2.58
2018-06-24T17:21:41.702Z,2.20
2018-06-24T17:24:09.871Z,2.25
2018-06-24T17:26:38.128Z,2.60
2018-06-24T17:29:06.020Z,2.20
2018-06-24T17:31:34.500Z,2.20
2018-06-24T17:34:02.572Z,2.20
2018-06-24T17:36:30.603Z,2.20
2018-06-24T17:38:58.657Z,2.60
2018-06-24T17:41:26.698Z,1.92
2018-06-24T17:43:54.761Z,2.10
2018-06-24T17:46:22.940Z,2.22
2018-06-24T17:48:51.112Z,2.12
2018-06-24T17:51:19.200Z,2.37
2018-06-24T17:53:47.265Z,2.30
2018-06-24T17:56:15.323Z,2.12
2018-06-24T17:58:43.427Z,2.20
2018-06-24T18:01:11.461Z,2.80
2018-06-24T18:03:39.556Z,2.12
2018-06-24T18:06:07.828Z,2.02
2018-06-24T18:08:35.930Z,2.00
2018-06-24T18:11:03.989Z,1.80
2018-06-24T18:13:31.972Z,2.00
2018-06-24T18:16:00.127Z,1.80
2018-06-24T18:18:28.185Z,2.10
2018-06-24T18:20:56.385Z,2.10
2018-06-24T18:23:24.575Z,2.10
2018-06-24T18:25:52.588Z,2.20
2018-06-24T18:28:20.587Z,2.30
2018-06-24T18:30:48.745Z,2.17
2018-06-24T18:33:16.552Z,2.30
2018-06-24T18:35:44.596Z,2.40
2018-06-24T18:38:12.676Z,2.10
2018-06-24T18:40:40.861Z,2.40
2018-06-24T18:43:09.033Z,2.60
2018-06-24T18:45:37.436Z,2.10
2018-06-24T18:48:05.694Z,2.20
2018-06-24T18:50:33.991Z,2.42
2018-06-24T18:53:02.138Z,2.20
2018-06-24T18:55:30.429Z,2.40
2018-06-24T18:57:58.492Z,2.40
2018-06-24T19:00:27.104Z,2.40
2018-06-24T19:02:55.366Z,2.50
2018-06-24T19:05:23.909Z,2.33
2018-06-24T19:07:51.681Z,2.60
2018-06-24T19:10:19.476Z,2.67
2018-06-24T19:12:47.540Z,2.70
2018-06-24T19:15:18.673Z,2.80
2018-06-24T19:17:46.437Z,3.20
2018-06-24T19:20:14.354Z,2.90
2018-06-24T19:22:42.484Z,3.30
2018-06-24T19:25:10.720Z,2.65
2018-06-24T19:27:38.870Z,2.70
2018-06-24T19:30:07.008Z,2.80
2018-06-24T19:32:34.819Z,2.60
2018-06-24T19:35:02.976Z,3.10
2018-06-24T19:37:31.144Z,2.60
2018-06-24T19:39:59.238Z,2.95
2018-06-24T19:42:27.300Z,2.70
2018-06-24T19:44:55.571Z,3.10
2018-06-24T19:47:23.678Z,2.70
2018-06-24T19:49:51.822Z,2.80
2018-06-24T19:52:19.998Z,2.50
2018-06-24T19:54:48.147Z,2.75
2018-06-24T19:57:15.960Z,3.10
2018-06-24T19:59:44.112Z,3.50
2018-06-24T20:02:12.288Z,3.80
2018-06-24T20:04:40.359Z,3.33
2018-06-24T20:07:08.511Z,3.33
2018-06-24T20:09:36.303Z,3.13
2018-06-24T20:12:04.458Z,3.17
2018-06-24T20:14:32.361Z,3.20
2018-06-24T20:17:00.417Z,3.08
2018-06-24T20:19:28.499Z,3.47
2018-06-24T20:21:56.635Z,3.60
2018-06-24T20:24:24.721Z,3.00
2018-06-24T20:26:52.932Z,3.25
2018-06-24T20:29:21.085Z,3.02
2018-06-24T20:31:49.153Z,3.50
2018-06-24T20:37:38.866Z,4.00
2018-06-24T20:40:06.951Z,3.85
2018-06-24T20:42:35.090Z,3.80
2018-06-24T20:45:03.089Z,3.67
2018-06-24T20:47:31.240Z,3.90
2018-06-24T20:49:59.144Z,4.25
2018-06-24T20:52:27.407Z,3.30
2018-06-24T20:54:55.491Z,3.90
2018-06-24T20:57:23.540Z,3.40
2018-06-24T20:59:51.434Z,3.60
2018-06-24T21:02:19.519Z,3.70
2018-06-24T21:04:47.637Z,3.55
2018-06-24T21:07:15.740Z,3.50
2018-06-24T21:09:43.808Z,3.87
2018-06-24T21:12:11.844Z,3.80
2018-06-24T21:14:39.866Z,3.90
2018-06-24T21:17:07.928Z,4.03
2018-06-24T21:19:36.240Z,4.60
2018-06-24T21:22:04.303Z,4.40
2018-06-24T21:24:37.161Z,4.20
2018-06-24T21:27:06.511Z,4.70
2018-06-24T21:29:34.520Z,4.60
2018-06-24T21:32:02.623Z,4.75
2018-06-24T21:34:30.671Z,4.70
2018-06-24T21:36:58.772Z,4.40
2018-06-24T21:39:27.240Z,5.05
2018-06-24T21:41:55.788Z,4.00
2018-06-24T21:44:24.224Z,4.55
2018-06-24T21:46:52.588Z,5.00
2018-06-24T21:49:21.014Z,4.70
2018-06-24T21:51:49.032Z,4.60
2018-06-24T21:54:17.362Z,4.95
2018-06-24T21:56:45.385Z,4.10
2018-06-24T21:59:13.391Z,4.60
2018-06-24T22:01:41.532Z,4.80
2018-06-24T22:04:09.728Z,4.80
2018-06-24T22:06:37.969Z,4.80
2018-06-24T22:09:08.884Z,4.47
2018-06-24T22:11:37.204Z,4.90
2018-06-24T22:14:05.612Z,5.10
2018-06-24T22:16:33.966Z,5.20
2018-06-24T22:19:02.165Z,5.40
2018-06-24T22:21:30.236Z,5.22
2018-06-24T22:23:58.288Z,5.87
2018-06-24T22:26:26.384Z,5.92
2018-06-24T22:28:54.449Z,6.10
2018-06-24T22:31:22.514Z,6.20
2018-06-24T22:33:50.592Z,6.40
2018-06-24T22:36:18.651Z,6.90
2018-06-24T22:38:46.747Z,7.58
2018-06-24T22:41:14.784Z,6.58
2018-06-24T22:43:42.905Z,7.65
2018-06-24T22:46:11.170Z,6.12
2018-06-24T22:48:39.253Z,6.27
2018-06-24T22:51:07.403Z,5.28
2018-06-24T22:53:35.760Z,6.13
2018-06-24T22:56:03.534Z,6.03
2018-06-24T22:58:31.426Z,5.43
2018-06-24T23:00:59.508Z,6.37
2018-06-24T23:03:27.589Z,5.90
2018-06-24T23:05:55.854Z,6.85
2018-06-24T23:08:23.928Z,7.20
2018-06-24T23:10:52.081Z,7.70
2018-06-24T23:13:20.280Z,7.80
2018-06-24T23:15:48.436Z,7.60
2018-06-24T23:18:16.506Z,8.00
2018-06-24T23:20:44.612Z,7.75
2018-06-24T23:23:12.655Z,8.58
2018-06-24T23:25:40.847Z,8.40
2018-06-24T23:28:09.026Z,8.83
2018-06-24T23:30:37.124Z,9.30
2018-06-24T23:33:05.177Z,9.55
2018-06-24T23:35:33.312Z,10.20
2018-06-24T23:38:01.229Z,11.18
2018-06-24T23:40:29.369Z,10.70
2018-06-24T23:42:57.157Z,10.43
2018-06-24T23:45:25.222Z,10.60
2018-06-24T23:47:53.295Z,11.10
2018-06-24T23:50:21.379Z,11.93
2018-06-24T23:52:49.557Z,11.22
2018-06-24T23:55:17.542Z,10.23
2018-06-24T23:57:45.580Z,11.73
